sensor_id;sensor_type;location;lat;lon;timestamp;temperature;humidity
18823;DHT22;9540;51.550;7.980;2023-12-28T00:02:02;8.90;99.90
18823;DHT22;9540;51.550;7.980;2023-12-28T00:04:30;9.00;99.90
18823;DHT22;9540;51.550;7.980;2023-12-28T00:07:00;9.10;99.90
18823;DHT22;9540;51.550;7.980;2023-12-28T00:09:27;9.10;99.90
18823;DHT22;9540;51.550;7.980;2023-12-28T00:11:54;9.10;99.90
18823;DHT22;9540;51.550;7.980;2023-12-28T00:14:21;9.00;99.90
18823;DHT22;9540;51.550;7.980;2023-12-28T00:16:48;9.00;99.90
18823;DHT22;9540;51.550;7.980;2023-12-28T00:19:15;9.10;99.90
18823;DHT22;9540;51.550;7.980;2023-12-28T00:21:44;9.10;99.90
18823;DHT22;9540;51.550;7.980;2023-12-28T00:24:11;9.10;99.90
18823;DHT22;9540;51.550;7.980;2023-12-28T00:26:38;8.90;99.90
18823;DHT22;9540;51.550;7.980;2023-12-28T00:29:05;9.00;99.90
18823;DHT22;9540;51.550;7.980;2023-12-28T00:31:32;8.90;99.90
18823;DHT22;9540;51.550;7.980;2023-12-28T00:33:59;8.80;99.90
18823;DHT22;9540;51.550;7.980;2023-12-28T00:36:26;8.70;99.90
18823;DHT22;9540;51.550;7.980;2023-12-28T00:38:54;8.70;99.90
18823;DHT22;9540;51.550;7.980;2023-12-28T00:41:21;8.60;99.90
18823;DHT22;9540;51.550;7.980;2023-12-28T00:43:48;8.60;99.90
18823;DHT22;9540;51.550;7.980;2023-12-28T00:46:15;8.50;99.90
18823;DHT22;9540;51.550;7.980;2023-12-28T00:48:42;8.50;99.90
18823;DHT22;9540;51.550;7.980;2023-12-28T00:51:09;8.60;99.90
18823;DHT22;9540;51.550;7.980;2023-12-28T00:53:36;8.60;99.90
18823;DHT22;9540;51.550;7.980;2023-12-28T00:56:06;8.60;99.90
18823;DHT22;9540;51.550;7.980;2023-12-28T00:58:33;8.60;99.90
18823;DHT22;9540;51.550;7.980;2023-12-28T01:01:00;8.60;99.90
18823;DHT22;9540;51.550;7.980;2023-12-28T01:03:27;8.60;99.90
18823;DHT22;9540;51.550;7.980;2023-12-28T01:05:54;8.60;99.90
18823;DHT22;9540;51.550;7.980;2023-12-28T01:08:21;8.70;99.90
18823;DHT22;9540;51.550;7.980;2023-12-28T01:10:48;8.70;99.90
18823;DHT22;9540;51.550;7.980;2023-12-28T01:13:16;8.70;99.90
18823;DHT22;9540;51.550;7.980;2023-12-28T01:15:43;8.70;99.90
18823;DHT22;9540;51.550;7.980;2023-12-28T01:18:10;8.70;99.90
18823;DHT22;9540;51.550;7.980;2023-12-28T01:20:37;8.70;99.90
18823;DHT22;9540;51.550;7.980;2023-12-28T01:23:04;8.70;99.90
18823;DHT22;9540;51.550;7.980;2023-12-28T01:25:31;8.70;99.90
18823;DHT22;9540;51.550;7.980;2023-12-28T01:27:58;8.70;99.90
18823;DHT22;9540;51.550;7.980;2023-12-28T01:30:27;8.80;99.90
18823;DHT22;9540;51.550;7.980;2023-12-28T01:32:54;8.80;99.90
18823;DHT22;9540;51.550;7.980;2023-12-28T01:35:21;8.80;99.90
18823;DHT22;9540;51.550;7.980;2023-12-28T01:37:48;8.70;99.90
18823;DHT22;9540;51.550;7.980;2023-12-28T01:40:15;8.70;99.90
18823;DHT22;9540;51.550;7.980;2023-12-28T01:42:42;8.70;99.90
18823;DHT22;9540;51.550;7.980;2023-12-28T01:45:09;8.80;99.90
18823;DHT22;9540;51.550;7.980;2023-12-28T01:47:38;8.80;99.90
18823;DHT22;9540;51.550;7.980;2023-12-28T01:50:06;8.80;99.90
18823;DHT22;9540;51.550;7.980;2023-12-28T01:52:33;8.80;99.90
18823;DHT22;9540;51.550;7.980;2023-12-28T01:55:01;8.80;99.90
18823;DHT22;9540;51.550;7.980;2023-12-28T01:57:28;8.90;99.90
18823;DHT22;9540;51.550;7.980;2023-12-28T01:59:56;8.90;99.90
18823;DHT22;9540;51.550;7.980;2023-12-28T02:02:24;8.80;99.90
18823;DHT22;9540;51.550;7.980;2023-12-28T02:04:53;8.80;99.90
18823;DHT22;9540;51.550;7.980;2023-12-28T02:07:20;8.80;99.90
18823;DHT22;9540;51.550;7.980;2023-12-28T02:09:48;8.70;99.90
18823;DHT22;9540;51.550;7.980;2023-12-28T02:12:15;8.70;99.90
18823;DHT22;9540;51.550;7.980;2023-12-28T02:14:42;8.70;99.90
18823;DHT22;9540;51.550;7.980;2023-12-28T02:17:14;8.70;99.90
18823;DHT22;9540;51.550;7.980;2023-12-28T02:19:46;8.80;99.90
18823;DHT22;9540;51.550;7.980;2023-12-28T02:22:16;8.80;99.90
18823;DHT22;9540;51.550;7.980;2023-12-28T02:25:04;8.90;99.90
18823;DHT22;9540;51.550;7.980;2023-12-28T02:27:33;8.90;99.90
18823;DHT22;9540;51.550;7.980;2023-12-28T02:30:00;9.00;99.90
18823;DHT22;9540;51.550;7.980;2023-12-28T02:32:35;9.10;99.90
18823;DHT22;9540;51.550;7.980;2023-12-28T02:35:13;9.10;99.90
18823;DHT22;9540;51.550;7.980;2023-12-28T02:37:42;9.20;99.90
18823;DHT22;9540;51.550;7.980;2023-12-28T02:40:14;9.20;99.90
18823;DHT22;9540;51.550;7.980;2023-12-28T02:42:43;9.20;99.90
18823;DHT22;9540;51.550;7.980;2023-12-28T02:45:10;9.20;99.90
18823;DHT22;9540;51.550;7.980;2023-12-28T02:47:37;9.20;99.90
18823;DHT22;9540;51.550;7.980;2023-12-28T02:50:05;9.20;99.90
18823;DHT22;9540;51.550;7.980;2023-12-28T02:52:32;9.20;99.90
18823;DHT22;9540;51.550;7.980;2023-12-28T02:54:59;9.10;99.90
18823;DHT22;9540;51.550;7.980;2023-12-28T02:57:28;9.00;99.90
18823;DHT22;9540;51.550;7.980;2023-12-28T02:59:55;9.00;99.90
18823;DHT22;9540;51.550;7.980;2023-12-28T03:02:27;8.90;99.90
18823;DHT22;9540;51.550;7.980;2023-12-28T03:04:55;8.80;99.90
18823;DHT22;9540;51.550;7.980;2023-12-28T03:07:22;8.80;99.90
18823;DHT22;9540;51.550;7.980;2023-12-28T03:09:49;8.80;99.90
18823;DHT22;9540;51.550;7.980;2023-12-28T03:12:16;8.70;99.90
18823;DHT22;9540;51.550;7.980;2023-12-28T03:14:44;8.70;99.90
18823;DHT22;9540;51.550;7.980;2023-12-28T03:17:12;8.80;99.90
18823;DHT22;9540;51.550;7.980;2023-12-28T03:19:39;8.80;99.90
18823;DHT22;9540;51.550;7.980;2023-12-28T03:22:06;8.80;99.90
18823;DHT22;9540;51.550;7.980;2023-12-28T03:24:33;8.80;99.90
18823;DHT22;9540;51.550;7.980;2023-12-28T03:27:00;8.80;99.90
18823;DHT22;9540;51.550;7.980;2023-12-28T03:29:28;8.80;99.90
18823;DHT22;9540;51.550;7.980;2023-12-28T03:31:56;8.90;99.90
18823;DHT22;9540;51.550;7.980;2023-12-28T03:34:24;8.90;99.90
18823;DHT22;9540;51.550;7.980;2023-12-28T03:36:55;8.90;99.90
18823;DHT22;9540;51.550;7.980;2023-12-28T03:39:22;8.80;99.90
18823;DHT22;9540;51.550;7.980;2023-12-28T03:41:49;8.80;99.90
18823;DHT22;9540;51.550;7.980;2023-12-28T03:44:18;8.70;99.90
18823;DHT22;9540;51.550;7.980;2023-12-28T03:46:46;8.80;99.90
18823;DHT22;9540;51.550;7.980;2023-12-28T03:49:16;8.80;99.90
18823;DHT22;9540;51.550;7.980;2023-12-28T03:51:43;8.80;99.90
18823;DHT22;9540;51.550;7.980;2023-12-28T03:54:11;8.90;99.90
18823;DHT22;9540;51.550;7.980;2023-12-28T03:56:38;8.90;99.90
18823;DHT22;9540;51.550;7.980;2023-12-28T03:59:06;8.90;99.90
18823;DHT22;9540;51.550;7.980;2023-12-28T04:01:33;8.90;99.90
18823;DHT22;9540;51.550;7.980;2023-12-28T04:04:00;8.90;99.90
18823;DHT22;9540;51.550;7.980;2023-12-28T04:06:29;8.90;99.90
18823;DHT22;9540;51.550;7.980;2023-12-28T04:08:56;9.00;99.90
18823;DHT22;9540;51.550;7.980;2023-12-28T04:11:23;9.10;99.90
18823;DHT22;9540;51.550;7.980;2023-12-28T04:13:50;9.10;99.90
18823;DHT22;9540;51.550;7.980;2023-12-28T04:16:17;9.00;99.90
18823;DHT22;9540;51.550;7.980;2023-12-28T04:18:44;8.90;99.90
18823;DHT22;9540;51.550;7.980;2023-12-28T04:21:12;8.90;99.90
18823;DHT22;9540;51.550;7.980;2023-12-28T04:23:41;8.80;99.90
18823;DHT22;9540;51.550;7.980;2023-12-28T04:26:08;8.80;99.90
18823;DHT22;9540;51.550;7.980;2023-12-28T04:28:35;8.80;99.90
18823;DHT22;9540;51.550;7.980;2023-12-28T04:31:03;8.90;99.90
18823;DHT22;9540;51.550;7.980;2023-12-28T04:33:30;8.80;99.90
18823;DHT22;9540;51.550;7.980;2023-12-28T04:36:00;8.80;99.90
18823;DHT22;9540;51.550;7.980;2023-12-28T04:38:29;8.80;99.90
18823;DHT22;9540;51.550;7.980;2023-12-28T04:40:57;8.90;99.90
18823;DHT22;9540;51.550;7.980;2023-12-28T04:43:24;8.80;99.90
18823;DHT22;9540;51.550;7.980;2023-12-28T04:45:51;8.80;99.90
18823;DHT22;9540;51.550;7.980;2023-12-28T04:48:18;8.90;99.90
18823;DHT22;9540;51.550;7.980;2023-12-28T04:50:47;8.90;99.90
18823;DHT22;9540;51.550;7.980;2023-12-28T04:53:15;8.80;99.90
18823;DHT22;9540;51.550;7.980;2023-12-28T04:55:42;8.90;99.90
18823;DHT22;9540;51.550;7.980;2023-12-28T04:58:11;8.90;99.90
18823;DHT22;9540;51.550;7.980;2023-12-28T05:00:39;8.90;99.90
18823;DHT22;9540;51.550;7.980;2023-12-28T05:03:06;8.90;99.90
18823;DHT22;9540;51.550;7.980;2023-12-28T05:05:33;8.90;99.90
18823;DHT22;9540;51.550;7.980;2023-12-28T05:08:00;8.90;99.90
18823;DHT22;9540;51.550;7.980;2023-12-28T05:10:27;8.80;99.90
18823;DHT22;9540;51.550;7.980;2023-12-28T05:12:54;8.80;99.90
18823;DHT22;9540;51.550;7.980;2023-12-28T05:15:23;8.80;99.90
18823;DHT22;9540;51.550;7.980;2023-12-28T05:17:50;8.80;99.90
18823;DHT22;9540;51.550;7.980;2023-12-28T05:20:17;8.90;99.90
18823;DHT22;9540;51.550;7.980;2023-12-28T05:22:44;8.90;99.90
18823;DHT22;9540;51.550;7.980;2023-12-28T05:25:11;8.90;99.90
18823;DHT22;9540;51.550;7.980;2023-12-28T05:27:38;8.90;99.90
18823;DHT22;9540;51.550;7.980;2023-12-28T05:30:06;9.00;99.90
18823;DHT22;9540;51.550;7.980;2023-12-28T05:32:35;9.00;99.90
18823;DHT22;9540;51.550;7.980;2023-12-28T05:35:03;9.00;99.90
18823;DHT22;9540;51.550;7.980;2023-12-28T05:37:30;9.00;99.90
18823;DHT22;9540;51.550;7.980;2023-12-28T05:39:57;9.00;99.90
18823;DHT22;9540;51.550;7.980;2023-12-28T05:42:24;9.10;99.90
18823;DHT22;9540;51.550;7.980;2023-12-28T05:44:51;9.10;99.90
18823;DHT22;9540;51.550;7.980;2023-12-28T05:47:18;9.00;99.90
18823;DHT22;9540;51.550;7.980;2023-12-28T05:49:47;9.10;99.90
18823;DHT22;9540;51.550;7.980;2023-12-28T05:52:14;9.00;99.90
18823;DHT22;9540;51.550;7.980;2023-12-28T05:54:44;9.10;99.90
18823;DHT22;9540;51.550;7.980;2023-12-28T05:57:11;9.00;99.90
18823;DHT22;9540;51.550;7.980;2023-12-28T05:59:38;9.00;99.90
18823;DHT22;9540;51.550;7.980;2023-12-28T06:02:06;9.00;99.90
18823;DHT22;9540;51.550;7.980;2023-12-28T06:04:34;8.90;99.90
18823;DHT22;9540;51.550;7.980;2023-12-28T06:07:04;8.90;99.90
18823;DHT22;9540;51.550;7.980;2023-12-28T06:09:31;8.90;99.90
18823;DHT22;9540;51.550;7.980;2023-12-28T06:11:58;8.90;99.90
18823;DHT22;9540;51.550;7.980;2023-12-28T06:14:25;8.90;99.90
18823;DHT22;9540;51.550;7.980;2023-12-28T06:16:52;9.00;99.90
18823;DHT22;9540;51.550;7.980;2023-12-28T06:19:19;9.10;99.90
18823;DHT22;9540;51.550;7.980;2023-12-28T06:21:47;9.20;99.90
18823;DHT22;9540;51.550;7.980;2023-12-28T06:24:16;9.20;99.90
18823;DHT22;9540;51.550;7.980;2023-12-28T06:26:44;9.10;99.90
18823;DHT22;9540;51.550;7.980;2023-12-28T06:29:11;9.10;99.90
18823;DHT22;9540;51.550;7.980;2023-12-28T06:31:38;9.20;99.90
18823;DHT22;9540;51.550;7.980;2023-12-28T06:34:06;9.20;99.90
18823;DHT22;9540;51.550;7.980;2023-12-28T06:36:34;9.20;99.90
18823;DHT22;9540;51.550;7.980;2023-12-28T06:39:01;9.30;99.90
18823;DHT22;9540;51.550;7.980;2023-12-28T06:41:29;9.30;99.90
18823;DHT22;9540;51.550;7.980;2023-12-28T06:43:56;9.30;99.90
18823;DHT22;9540;51.550;7.980;2023-12-28T06:46:23;9.30;99.90
18823;DHT22;9540;51.550;7.980;2023-12-28T06:48:50;9.20;99.90
18823;DHT22;9540;51.550;7.980;2023-12-28T06:51:17;9.20;99.90
18823;DHT22;9540;51.550;7.980;2023-12-28T06:53:45;9.20;99.90
18823;DHT22;9540;51.550;7.980;2023-12-28T06:56:12;9.20;99.90
18823;DHT22;9540;51.550;7.980;2023-12-28T06:58:41;9.20;99.90
18823;DHT22;9540;51.550;7.980;2023-12-28T07:01:08;9.20;99.90
18823;DHT22;9540;51.550;7.980;2023-12-28T07:03:35;9.20;99.90
18823;DHT22;9540;51.550;7.980;2023-12-28T07:06:02;9.10;99.90
18823;DHT22;9540;51.550;7.980;2023-12-28T07:08:30;9.10;99.90
18823;DHT22;9540;51.550;7.980;2023-12-28T07:10:57;9.10;99.90
18823;DHT22;9540;51.550;7.980;2023-12-28T07:13:24;9.00;99.90
18823;DHT22;9540;51.550;7.980;2023-12-28T07:15:53;9.00;99.90
18823;DHT22;9540;51.550;7.980;2023-12-28T07:18:20;9.00;99.90
18823;DHT22;9540;51.550;7.980;2023-12-28T07:20:47;8.90;99.90
18823;DHT22;9540;51.550;7.980;2023-12-28T07:23:14;8.80;99.90
18823;DHT22;9540;51.550;7.980;2023-12-28T07:25:41;8.80;99.90
18823;DHT22;9540;51.550;7.980;2023-12-28T07:28:09;8.60;99.90
18823;DHT22;9540;51.550;7.980;2023-12-28T07:30:36;8.50;99.90
18823;DHT22;9540;51.550;7.980;2023-12-28T07:33:05;8.40;99.90
18823;DHT22;9540;51.550;7.980;2023-12-28T07:35:32;8.40;99.90
18823;DHT22;9540;51.550;7.980;2023-12-28T07:37:59;8.40;99.90
18823;DHT22;9540;51.550;7.980;2023-12-28T07:40:26;8.30;99.90
18823;DHT22;9540;51.550;7.980;2023-12-28T07:42:53;8.30;99.90
18823;DHT22;9540;51.550;7.980;2023-12-28T07:45:20;8.30;99.90
18823;DHT22;9540;51.550;7.980;2023-12-28T07:47:49;8.30;99.90
18823;DHT22;9540;51.550;7.980;2023-12-28T07:50:18;8.30;99.90
18823;DHT22;9540;51.550;7.980;2023-12-28T07:52:46;8.30;99.90
18823;DHT22;9540;51.550;7.980;2023-12-28T07:55:13;8.40;99.90
18823;DHT22;9540;51.550;7.980;2023-12-28T07:57:40;8.40;99.90
18823;DHT22;9540;51.550;7.980;2023-12-28T08:00:08;8.50;99.90
18823;DHT22;9540;51.550;7.980;2023-12-28T08:02:35;8.50;99.90
18823;DHT22;9540;51.550;7.980;2023-12-28T08:05:02;8.40;99.90
18823;DHT22;9540;51.550;7.980;2023-12-28T08:07:30;8.40;99.90
18823;DHT22;9540;51.550;7.980;2023-12-28T08:09:57;8.30;99.90
18823;DHT22;9540;51.550;7.980;2023-12-28T08:12:24;8.40;99.90
18823;DHT22;9540;51.550;7.980;2023-12-28T08:14:53;8.30;99.90
18823;DHT22;9540;51.550;7.980;2023-12-28T08:17:20;8.30;99.90
18823;DHT22;9540;51.550;7.980;2023-12-28T08:19:47;8.30;99.90
18823;DHT22;9540;51.550;7.980;2023-12-28T08:22:15;8.40;99.90
18823;DHT22;9540;51.550;7.980;2023-12-28T08:24:43;8.40;99.90
18823;DHT22;9540;51.550;7.980;2023-12-28T08:27:10;8.50;99.90
18823;DHT22;9540;51.550;7.980;2023-12-28T08:29:37;8.60;99.90
18823;DHT22;9540;51.550;7.980;2023-12-28T08:32:06;8.70;99.90
18823;DHT22;9540;51.550;7.980;2023-12-28T08:34:33;8.80;99.90
18823;DHT22;9540;51.550;7.980;2023-12-28T08:37:00;8.90;99.90
18823;DHT22;9540;51.550;7.980;2023-12-28T08:39:28;8.90;99.90
18823;DHT22;9540;51.550;7.980;2023-12-28T08:41:56;8.90;99.90
18823;DHT22;9540;51.550;7.980;2023-12-28T08:44:24;8.80;99.90
18823;DHT22;9540;51.550;7.980;2023-12-28T08:46:51;8.70;99.90
18823;DHT22;9540;51.550;7.980;2023-12-28T08:49:18;8.70;99.90
18823;DHT22;9540;51.550;7.980;2023-12-28T08:51:45;8.60;99.90
18823;DHT22;9540;51.550;7.980;2023-12-28T08:54:12;8.60;99.90
18823;DHT22;9540;51.550;7.980;2023-12-28T08:56:40;8.60;99.90
18823;DHT22;9540;51.550;7.980;2023-12-28T08:59:08;8.70;99.90
18823;DHT22;9540;51.550;7.980;2023-12-28T09:01:35;8.70;99.90
18823;DHT22;9540;51.550;7.980;2023-12-28T09:04:02;8.70;99.90
18823;DHT22;9540;51.550;7.980;2023-12-28T09:06:29;8.90;99.90
18823;DHT22;9540;51.550;7.980;2023-12-28T09:08:56;9.10;99.90
18823;DHT22;9540;51.550;7.980;2023-12-28T09:11:24;9.20;99.90
18823;DHT22;9540;51.550;7.980;2023-12-28T09:13:51;9.30;99.90
18823;DHT22;9540;51.550;7.980;2023-12-28T09:16:19;9.40;99.90
18823;DHT22;9540;51.550;7.980;2023-12-28T09:18:46;9.40;99.90
18823;DHT22;9540;51.550;7.980;2023-12-28T09:21:13;9.50;99.90
18823;DHT22;9540;51.550;7.980;2023-12-28T09:23:41;9.60;99.90
18823;DHT22;9540;51.550;7.980;2023-12-28T09:26:09;9.70;99.90
18823;DHT22;9540;51.550;7.980;2023-12-28T09:28:39;9.90;99.90
18823;DHT22;9540;51.550;7.980;2023-12-28T09:31:07;10.20;99.90
18823;DHT22;9540;51.550;7.980;2023-12-28T09:33:35;10.20;99.90
18823;DHT22;9540;51.550;7.980;2023-12-28T09:36:03;10.30;99.90
18823;DHT22;9540;51.550;7.980;2023-12-28T09:38:30;10.40;99.90
18823;DHT22;9540;51.550;7.980;2023-12-28T09:40:58;10.50;99.90
18823;DHT22;9540;51.550;7.980;2023-12-28T09:43:31;10.40;99.90
18823;DHT22;9540;51.550;7.980;2023-12-28T09:46:06;10.40;99.90
18823;DHT22;9540;51.550;7.980;2023-12-28T09:48:37;10.40;99.90
18823;DHT22;9540;51.550;7.980;2023-12-28T09:51:05;10.40;99.90
18823;DHT22;9540;51.550;7.980;2023-12-28T09:53:32;10.30;99.90
18823;DHT22;9540;51.550;7.980;2023-12-28T09:55:59;10.40;99.90
18823;DHT22;9540;51.550;7.980;2023-12-28T09:58:28;10.40;99.90
18823;DHT22;9540;51.550;7.980;2023-12-28T10:00:59;10.50;99.90
18823;DHT22;9540;51.550;7.980;2023-12-28T10:03:27;10.60;99.90
18823;DHT22;9540;51.550;7.980;2023-12-28T10:05:55;10.70;99.90
18823;DHT22;9540;51.550;7.980;2023-12-28T10:08:22;10.90;99.90
18823;DHT22;9540;51.550;7.980;2023-12-28T10:10:50;11.00;99.90
18823;DHT22;9540;51.550;7.980;2023-12-28T10:13:20;11.30;99.90
18823;DHT22;9540;51.550;7.980;2023-12-28T10:15:48;11.40;99.90
18823;DHT22;9540;51.550;7.980;2023-12-28T10:18:17;11.40;99.90
18823;DHT22;9540;51.550;7.980;2023-12-28T10:20:49;11.30;99.90
18823;DHT22;9540;51.550;7.980;2023-12-28T10:23:18;11.30;99.90
18823;DHT22;9540;51.550;7.980;2023-12-28T10:25:46;11.40;99.90
18823;DHT22;9540;51.550;7.980;2023-12-28T10:28:16;11.50;99.90
18823;DHT22;9540;51.550;7.980;2023-12-28T10:30:45;11.50;99.90
18823;DHT22;9540;51.550;7.980;2023-12-28T10:33:13;11.60;99.90
18823;DHT22;9540;51.550;7.980;2023-12-28T10:35:41;11.70;99.90
18823;DHT22;9540;51.550;7.980;2023-12-28T10:38:10;11.90;99.90
18823;DHT22;9540;51.550;7.980;2023-12-28T10:40:42;12.00;99.90
18823;DHT22;9540;51.550;7.980;2023-12-28T10:43:11;12.20;99.90
18823;DHT22;9540;51.550;7.980;2023-12-28T10:45:41;12.20;99.90
18823;DHT22;9540;51.550;7.980;2023-12-28T10:48:10;12.10;99.90
18823;DHT22;9540;51.550;7.980;2023-12-28T10:50:39;12.10;99.90
18823;DHT22;9540;51.550;7.980;2023-12-28T10:53:24;12.00;99.90
18823;DHT22;9540;51.550;7.980;2023-12-28T10:56:05;12.10;99.90
18823;DHT22;9540;51.550;7.980;2023-12-28T10:58:45;12.00;99.90
18823;DHT22;9540;51.550;7.980;2023-12-28T11:01:32;11.90;99.90
18823;DHT22;9540;51.550;7.980;2023-12-28T11:04:07;11.90;99.90
18823;DHT22;9540;51.550;7.980;2023-12-28T11:06:36;11.80;99.90
18823;DHT22;9540;51.550;7.980;2023-12-28T11:09:04;11.70;99.90
18823;DHT22;9540;51.550;7.980;2023-12-28T11:11:34;11.80;99.90
18823;DHT22;9540;51.550;7.980;2023-12-28T11:14:02;11.80;99.90
18823;DHT22;9540;51.550;7.980;2023-12-28T11:16:30;11.70;99.90
18823;DHT22;9540;51.550;7.980;2023-12-28T11:19:00;11.70;99.90
18823;DHT22;9540;51.550;7.980;2023-12-28T11:21:28;11.70;99.90
18823;DHT22;9540;51.550;7.980;2023-12-28T11:23:55;11.50;99.90
18823;DHT22;9540;51.550;7.980;2023-12-28T11:26:23;11.40;99.90
18823;DHT22;9540;51.550;7.980;2023-12-28T11:29:00;11.30;99.90
18823;DHT22;9540;51.550;7.980;2023-12-28T11:31:27;11.20;99.90
18823;DHT22;9540;51.550;7.980;2023-12-28T11:33:55;11.20;99.90
18823;DHT22;9540;51.550;7.980;2023-12-28T11:36:24;11.20;99.90
18823;DHT22;9540;51.550;7.980;2023-12-28T11:38:53;11.20;99.90
18823;DHT22;9540;51.550;7.980;2023-12-28T11:41:21;11.30;99.90
18823;DHT22;9540;51.550;7.980;2023-12-28T11:43:53;11.30;99.90
18823;DHT22;9540;51.550;7.980;2023-12-28T11:46:21;11.30;99.90
18823;DHT22;9540;51.550;7.980;2023-12-28T11:48:48;11.40;99.90
18823;DHT22;9540;51.550;7.980;2023-12-28T11:51:15;11.40;99.90
18823;DHT22;9540;51.550;7.980;2023-12-28T11:53:45;11.40;99.90
18823;DHT22;9540;51.550;7.980;2023-12-28T11:56:15;11.30;99.90
18823;DHT22;9540;51.550;7.980;2023-12-28T11:58:43;11.30;99.90
18823;DHT22;9540;51.550;7.980;2023-12-28T12:01:13;11.30;99.90
18823;DHT22;9540;51.550;7.980;2023-12-28T12:03:41;11.40;99.90
18823;DHT22;9540;51.550;7.980;2023-12-28T12:06:08;11.40;99.90
18823;DHT22;9540;51.550;7.980;2023-12-28T12:08:35;11.40;99.90
18823;DHT22;9540;51.550;7.980;2023-12-28T12:11:05;11.40;99.90
18823;DHT22;9540;51.550;7.980;2023-12-28T12:13:34;11.30;99.90
18823;DHT22;9540;51.550;7.980;2023-12-28T12:16:03;11.30;99.90
18823;DHT22;9540;51.550;7.980;2023-12-28T12:18:33;11.30;99.90
18823;DHT22;9540;51.550;7.980;2023-12-28T12:21:00;11.40;99.90
18823;DHT22;9540;51.550;7.980;2023-12-28T12:23:27;11.40;99.90
18823;DHT22;9540;51.550;7.980;2023-12-28T12:25:55;11.50;99.90
18823;DHT22;9540;51.550;7.980;2023-12-28T12:28:22;11.60;99.90
18823;DHT22;9540;51.550;7.980;2023-12-28T12:30:54;11.60;99.90
18823;DHT22;9540;51.550;7.980;2023-12-28T12:33:22;11.80;99.90
18823;DHT22;9540;51.550;7.980;2023-12-28T12:35:50;11.90;99.90
18823;DHT22;9540;51.550;7.980;2023-12-28T12:38:18;12.10;99.90
18823;DHT22;9540;51.550;7.980;2023-12-28T12:40:45;12.20;99.90
18823;DHT22;9540;51.550;7.980;2023-12-28T12:43:12;12.40;99.90
18823;DHT22;9540;51.550;7.980;2023-12-28T12:45:39;12.40;99.90
18823;DHT22;9540;51.550;7.980;2023-12-28T12:48:07;12.60;99.90
18823;DHT22;9540;51.550;7.980;2023-12-28T12:50:34;12.60;99.90
18823;DHT22;9540;51.550;7.980;2023-12-28T12:53:05;12.50;99.90
18823;DHT22;9540;51.550;7.980;2023-12-28T12:55:32;12.30;99.90
18823;DHT22;9540;51.550;7.980;2023-12-28T12:57:59;12.10;99.90
18823;DHT22;9540;51.550;7.980;2023-12-28T13:00:27;12.10;99.90
18823;DHT22;9540;51.550;7.980;2023-12-28T13:02:54;12.00;99.90
18823;DHT22;9540;51.550;7.980;2023-12-28T13:05:24;11.90;99.90
18823;DHT22;9540;51.550;7.980;2023-12-28T13:07:51;11.90;99.90
18823;DHT22;9540;51.550;7.980;2023-12-28T13:10:19;11.90;99.90
18823;DHT22;9540;51.550;7.980;2023-12-28T13:12:46;11.90;99.90
18823;DHT22;9540;51.550;7.980;2023-12-28T13:15:13;11.90;99.90
18823;DHT22;9540;51.550;7.980;2023-12-28T13:17:41;11.80;99.90
18823;DHT22;9540;51.550;7.980;2023-12-28T13:20:10;11.90;99.90
18823;DHT22;9540;51.550;7.980;2023-12-28T13:22:37;11.90;99.90
18823;DHT22;9540;51.550;7.980;2023-12-28T13:25:05;11.80;99.90
18823;DHT22;9540;51.550;7.980;2023-12-28T13:27:33;11.80;99.90
18823;DHT22;9540;51.550;7.980;2023-12-28T13:30:00;11.70;99.90
18823;DHT22;9540;51.550;7.980;2023-12-28T13:32:27;11.70;99.90
18823;DHT22;9540;51.550;7.980;2023-12-28T13:34:54;11.60;99.90
18823;DHT22;9540;51.550;7.980;2023-12-28T13:37:22;11.70;99.90
18823;DHT22;9540;51.550;7.980;2023-12-28T13:39:49;11.60;99.90
18823;DHT22;9540;51.550;7.980;2023-12-28T13:42:16;11.60;99.90
18823;DHT22;9540;51.550;7.980;2023-12-28T13:44:44;11.50;99.90
18823;DHT22;9540;51.550;7.980;2023-12-28T13:47:11;11.40;99.90
18823;DHT22;9540;51.550;7.980;2023-12-28T13:49:38;11.40;99.90
18823;DHT22;9540;51.550;7.980;2023-12-28T13:52:06;11.30;99.90
18823;DHT22;9540;51.550;7.980;2023-12-28T13:54:34;11.30;99.90
18823;DHT22;9540;51.550;7.980;2023-12-28T13:57:01;11.20;99.90
18823;DHT22;9540;51.550;7.980;2023-12-28T13:59:28;11.20;99.90
18823;DHT22;9540;51.550;7.980;2023-12-28T14:01:57;11.10;99.90
18823;DHT22;9540;51.550;7.980;2023-12-28T14:04:25;11.10;99.90
18823;DHT22;9540;51.550;7.980;2023-12-28T14:06:52;11.10;99.90
18823;DHT22;9540;51.550;7.980;2023-12-28T14:09:19;11.00;99.90
18823;DHT22;9540;51.550;7.980;2023-12-28T14:11:47;11.00;99.90
18823;DHT22;9540;51.550;7.980;2023-12-28T14:14:14;11.00;99.90
18823;DHT22;9540;51.550;7.980;2023-12-28T14:16:41;10.90;99.90
18823;DHT22;9540;51.550;7.980;2023-12-28T14:19:09;10.90;99.90
18823;DHT22;9540;51.550;7.980;2023-12-28T14:21:37;10.80;99.90
18823;DHT22;9540;51.550;7.980;2023-12-28T14:24:06;10.80;99.90
18823;DHT22;9540;51.550;7.980;2023-12-28T14:26:33;10.70;99.90
18823;DHT22;9540;51.550;7.980;2023-12-28T14:29:01;10.70;99.90
18823;DHT22;9540;51.550;7.980;2023-12-28T14:31:31;10.60;99.90
18823;DHT22;9540;51.550;7.980;2023-12-28T14:33:59;10.60;99.90
18823;DHT22;9540;51.550;7.980;2023-12-28T14:36:31;10.60;99.90
18823;DHT22;9540;51.550;7.980;2023-12-28T14:38:59;10.50;99.90
18823;DHT22;9540;51.550;7.980;2023-12-28T14:41:26;10.40;99.90
18823;DHT22;9540;51.550;7.980;2023-12-28T14:43:53;10.30;99.90
18823;DHT22;9540;51.550;7.980;2023-12-28T14:46:20;10.30;99.90
18823;DHT22;9540;51.550;7.980;2023-12-28T14:48:47;10.30;99.90
18823;DHT22;9540;51.550;7.980;2023-12-28T14:51:14;10.30;99.90
18823;DHT22;9540;51.550;7.980;2023-12-28T14:53:42;10.20;99.90
18823;DHT22;9540;51.550;7.980;2023-12-28T14:56:10;10.10;99.90
18823;DHT22;9540;51.550;7.980;2023-12-28T14:58:37;10.00;99.90
18823;DHT22;9540;51.550;7.980;2023-12-28T15:01:07;10.00;99.90
18823;DHT22;9540;51.550;7.980;2023-12-28T15:03:34;9.90;99.90
18823;DHT22;9540;51.550;7.980;2023-12-28T15:06:04;10.00;99.90
18823;DHT22;9540;51.550;7.980;2023-12-28T15:08:32;10.00;99.90
18823;DHT22;9540;51.550;7.980;2023-12-28T15:11:01;10.00;99.90
18823;DHT22;9540;51.550;7.980;2023-12-28T15:13:29;10.00;99.90
18823;DHT22;9540;51.550;7.980;2023-12-28T15:15:56;10.00;99.90
18823;DHT22;9540;51.550;7.980;2023-12-28T15:18:24;9.90;99.90
18823;DHT22;9540;51.550;7.980;2023-12-28T15:20:51;9.90;99.90
18823;DHT22;9540;51.550;7.980;2023-12-28T15:23:18;9.80;99.90
18823;DHT22;9540;51.550;7.980;2023-12-28T15:25:46;9.80;99.90
18823;DHT22;9540;51.550;7.980;2023-12-28T15:28:14;9.70;99.90
18823;DHT22;9540;51.550;7.980;2023-12-28T15:30:41;9.70;99.90
18823;DHT22;9540;51.550;7.980;2023-12-28T15:33:09;9.60;99.90
18823;DHT22;9540;51.550;7.980;2023-12-28T15:35:37;9.70;99.90
18823;DHT22;9540;51.550;7.980;2023-12-28T15:38:04;9.70;99.90
18823;DHT22;9540;51.550;7.980;2023-12-28T15:40:31;9.70;99.90
18823;DHT22;9540;51.550;7.980;2023-12-28T15:42:58;9.70;99.90
18823;DHT22;9540;51.550;7.980;2023-12-28T15:45:27;9.70;99.90
18823;DHT22;9540;51.550;7.980;2023-12-28T15:47:54;9.70;99.90
18823;DHT22;9540;51.550;7.980;2023-12-28T15:50:21;9.60;99.90
18823;DHT22;9540;51.550;7.980;2023-12-28T15:52:48;9.60;99.90
18823;DHT22;9540;51.550;7.980;2023-12-28T15:55:15;9.50;99.90
18823;DHT22;9540;51.550;7.980;2023-12-28T15:57:42;9.50;99.90
18823;DHT22;9540;51.550;7.980;2023-12-28T16:00:11;9.50;99.90
18823;DHT22;9540;51.550;7.980;2023-12-28T16:02:39;9.50;99.90